Tonganoxie, Kansas
Current Conditions -  °F | °C
As of 4:52 PM on Monday 24 Nov 2014 (Local Time) from KLWC Reporting Station
Scattered Clouds Scattered Clouds  
Wind Chill: 29°   Ceiling: Unl
Heat Index: 38°   Visibility: 10mi
Dew Point: 23°   Wind: 15mph
Humidity: 55%   Direction: 290°WNW
Pressure: 29.93"   Gusts: NA
Location:  39.11°N, 95.09°W
Report Text: KLWC 242252Z AUTO 29013KT 10SM SCT050 03/M05 A2993 RMK AO2 SLP142 T00331050
Loading
Personal Weather Stations






























Interactive Weather Map New forecast layout! Learn more

10-Day Weather Forecast

Advertisements
Track Severe Weather on mobile